Edmond, Kansas
Current Conditions -  °F | °C
As of 4:53 PM on Tuesday 27 Jan 2015 (Local Time) from KHLC Reporting Station
Clear Clear  
Wind Chill: 80°   Ceiling: Unl
Heat Index: 80°   Visibility: 10mi
Dew Point: 31°   Wind: 6mph
Humidity: 17%   Direction: 70°ENE
Pressure: 29.93"   Gusts: NA
Location:  39.68°N, 99.7571°W
Report Text: KHLC 272253Z AUTO 07005KT 10SM CLR 27/M01 A2993 RMK AO2 SLP128 T02671006
Loading
Personal Weather Stations






























Interactive Weather Map New forecast layout! Learn more

10-Day Weather Forecast

Advertisements
Track Severe Weather on mobile